createdAt,value
2023-05-21T00:01:25.866Z,102215.81
2023-05-21T00:06:27.946Z,102202.72
2023-05-21T00:11:29.772Z,102201.53
2023-05-21T00:16:31.721Z,102198.84
2023-05-21T00:21:33.655Z,102198.19
2023-05-21T00:26:35.882Z,102201.00
2023-05-21T00:31:37.925Z,102200.53
2023-05-21T00:36:40.651Z,102189.59
2023-05-21T00:41:43.226Z,102188.25
2023-05-21T00:46:45.358Z,102183.88
2023-05-21T00:51:48.366Z,102188.75
2023-05-21T00:56:51.198Z,102200.97
2023-05-21T01:01:56.248Z,102186.88
2023-05-21T01:06:59.329Z,102182.84
2023-05-21T01:12:01.731Z,102169.22
2023-05-21T01:17:11.716Z,102172.03
2023-05-21T01:22:14.363Z,102164.09
2023-05-21T01:27:18.396Z,102161.06
2023-05-21T01:32:51.561Z,102146.28
2023-05-21T01:37:58.437Z,102152.00
2023-05-21T01:43:07.505Z,102149.63
2023-05-21T01:48:12.306Z,102146.25
2023-05-21T01:53:17.311Z,102153.47
2023-05-21T01:58:19.980Z,102141.72
2023-05-21T02:03:22.037Z,102138.75
2023-05-21T02:08:27.950Z,102142.59
2023-05-21T02:13:32.454Z,102125.44
2023-05-21T02:18:34.203Z,102134.63
2023-05-21T02:23:36.212Z,102134.03
2023-05-21T02:28:40.551Z,102133.50
2023-05-21T02:33:45.314Z,102141.34
2023-05-21T02:38:47.774Z,102131.09
2023-05-21T02:43:51.641Z,102130.88
2023-05-21T02:48:57.921Z,102139.91
2023-05-21T02:54:02.485Z,102130.34
2023-05-21T02:59:04.329Z,102128.13
2023-05-21T03:04:13.409Z,102118.88
2023-05-21T03:09:17.700Z,102104.09
2023-05-21T03:14:19.467Z,102107.66
2023-05-21T03:19:25.183Z,102109.94
2023-05-21T03:24:29.591Z,102102.53
2023-05-21T03:29:31.550Z,102101.47
2023-05-21T03:34:34.947Z,102103.63
2023-05-21T03:39:42.257Z,102101.41
2023-05-21T03:44:46.205Z,102109.16
2023-05-21T03:50:11.332Z,102104.44
2023-05-21T03:55:14.105Z,102092.69
2023-05-21T04:00:16.129Z,102100.22
2023-05-21T04:05:17.862Z,102090.97
2023-05-21T04:10:20.396Z,102103.06
2023-05-21T04:15:24.444Z,102109.53
2023-05-21T04:20:28.688Z,102105.72
2023-05-21T04:25:30.521Z,102111.78
2023-05-21T04:30:39.480Z,102110.28
2023-05-21T04:35:44.648Z,102106.97
2023-05-21T04:40:52.262Z,102104.00
2023-05-21T04:45:57.590Z,102101.50
2023-05-21T04:50:59.925Z,102104.22
2023-05-21T04:56:03.231Z,102105.66
2023-05-21T05:01:05.463Z,102095.31
2023-05-21T05:06:08.483Z,102088.44
2023-05-21T05:11:13.394Z,102085.59
2023-05-21T05:16:18.434Z,102093.34
2023-05-21T05:21:23.299Z,102092.84
2023-05-21T05:26:25.652Z,102082.97
2023-05-21T05:31:27.558Z,102079.28
2023-05-21T05:36:31.687Z,102071.69
2023-05-21T05:41:33.727Z,102072.34
2023-05-21T05:46:38.026Z,102081.91
2023-05-21T05:51:43.080Z,102072.50
2023-05-21T05:56:44.983Z,102073.66
2023-05-21T06:01:47.217Z,102070.97
2023-05-21T06:06:49.168Z,102071.13
2023-05-21T06:11:53.451Z,102074.31
2023-05-21T06:16:57.647Z,102070.22
2023-05-21T06:22:04.737Z,102073.25
2023-05-21T06:27:07.287Z,102074.06
2023-05-21T06:32:11.607Z,102074.31
2023-05-21T06:37:14.437Z,102073.06
2023-05-21T06:42:16.561Z,102076.72
2023-05-21T06:47:28.468Z,102075.25
2023-05-21T06:52:31.861Z,102073.78
2023-05-21T06:57:35.635Z,102062.16
2023-05-21T07:02:37.541Z,102058.94
2023-05-21T07:07:39.635Z,102045.19
2023-05-21T07:12:43.765Z,102052.38
2023-05-21T07:17:48.587Z,102042.59
2023-05-21T07:22:50.695Z,102039.66
2023-05-21T07:27:52.725Z,102039.56
2023-05-21T07:32:57.403Z,102045.16
2023-05-21T07:38:01.656Z,102040.75
2023-05-21T07:43:06.465Z,102038.06
2023-05-21T07:48:12.098Z,102053.63
2023-05-21T07:53:24.655Z,102054.97
2023-05-21T07:58:31.112Z,102040.59
2023-05-21T08:03:33.896Z,102038.22
2023-05-21T08:08:36.900Z,102044.53
2023-05-21T08:13:39.136Z,102046.03
2023-05-21T08:18:43.283Z,102038.97
2023-05-21T08:23:47.519Z,102033.72
2023-05-21T08:28:50.111Z,102030.72
2023-05-21T08:33:52.821Z,102042.31
2023-05-21T08:39:01.558Z,102045.88
2023-05-21T08:44:14.249Z,102040.28
2023-05-21T08:49:19.329Z,102030.56
2023-05-21T08:54:23.516Z,102033.81
2023-05-21T08:59:25.774Z,102029.28
2023-05-21T09:04:31.501Z,102023.06
2023-05-21T09:09:34.999Z,102023.28
2023-05-21T09:14:39.548Z,102027.25
2023-05-21T09:20:15.026Z,102028.53
2023-05-21T09:25:28.023Z,102014.13
2023-05-21T09:30:31.912Z,102016.03
2023-05-21T09:35:38.327Z,102014.09
2023-05-21T09:40:46.638Z,102015.91
2023-05-21T09:45:52.942Z,102017.94
2023-05-21T09:51:09.393Z,102008.75
2023-05-21T09:56:11.385Z,102011.56
2023-05-21T10:01:15.916Z,102000.84
2023-05-21T10:06:19.193Z,101989.44
2023-05-21T10:11:27.487Z,101985.69
2023-05-21T10:16:32.893Z,101994.00
2023-05-21T10:21:35.087Z,102000.59
2023-05-21T10:26:38.488Z,101988.50
2023-05-21T10:31:43.779Z,101995.53
2023-05-21T10:36:46.414Z,101977.78
2023-05-21T10:42:29.711Z,101973.34
2023-05-21T10:48:06.092Z,101963.75
2023-05-21T10:53:45.413Z,101958.78
2023-05-21T10:59:00.074Z,101960.34
2023-05-21T11:04:08.306Z,101962.25
2023-05-21T11:09:13.986Z,101955.63
2023-05-21T11:14:38.963Z,101959.81
2023-05-21T11:19:55.727Z,101960.81
2023-05-21T11:25:01.698Z,101941.75
2023-05-21T11:30:10.331Z,101939.28
2023-05-21T11:35:14.103Z,101944.34
2023-05-21T11:40:31.118Z,101944.69
2023-05-21T11:45:35.271Z,101942.09
2023-05-21T11:50:42.362Z,101950.19
2023-05-21T11:55:47.434Z,101938.47
2023-05-21T12:00:53.867Z,101939.28
2023-05-21T12:06:05.521Z,101935.97
2023-05-21T12:11:07.432Z,101929.81
2023-05-21T12:16:14.183Z,101933.16
2023-05-21T12:21:15.979Z,101921.31
2023-05-21T12:26:20.033Z,101905.50
2023-05-21T12:31:23.271Z,101912.19
2023-05-21T12:36:34.384Z,101906.97
2023-05-21T12:41:42.986Z,101914.47
2023-05-21T12:46:44.952Z,101918.63
2023-05-21T12:51:50.227Z,101920.00
2023-05-21T12:56:51.975Z,101914.50
2023-05-21T13:01:56.747Z,101907.06
2023-05-21T13:07:02.864Z,101905.56
2023-05-21T13:12:09.450Z,101904.63
2023-05-21T13:17:13.852Z,101897.09
2023-05-21T13:22:15.734Z,101887.69
2023-05-21T13:27:21.011Z,101892.28
2023-05-21T13:32:23.019Z,101889.03
2023-05-21T13:37:27.203Z,101881.91
2023-05-21T13:42:29.049Z,101876.94
2023-05-21T13:47:30.937Z,101880.34
2023-05-21T13:52:32.728Z,101874.75
2023-05-21T13:57:34.648Z,101875.94
2023-05-21T14:02:36.621Z,101884.53
2023-05-21T14:07:43.325Z,101870.59
2023-05-21T14:12:48.647Z,101874.47
2023-05-21T14:17:52.324Z,101869.69
2023-05-21T14:22:54.183Z,101858.69
2023-05-21T14:27:58.276Z,101859.53
2023-05-21T14:33:05.704Z,101850.13
2023-05-21T14:38:07.666Z,101843.78
2023-05-21T14:43:12.409Z,101840.28
2023-05-21T14:48:24.697Z,101841.56
2023-05-21T14:53:28.709Z,101843.56
2023-05-21T14:58:34.758Z,101834.78
2023-05-21T15:03:39.645Z,101836.91
2023-05-21T15:08:48.604Z,101822.28
2023-05-21T15:13:55.067Z,101818.84
2023-05-21T15:18:56.895Z,101806.75
2023-05-21T15:23:58.713Z,101801.44
2023-05-21T15:29:03.928Z,101799.28
2023-05-21T15:34:05.814Z,101798.41
2023-05-21T15:39:07.790Z,101798.75
2023-05-21T15:44:09.586Z,101785.47
2023-05-21T15:49:13.540Z,101784.88
2023-05-21T15:54:15.558Z,101781.00
2023-05-21T15:59:20.803Z,101770.94
2023-05-21T16:04:24.935Z,101778.97
2023-05-21T16:09:31.609Z,101772.00
2023-05-21T16:14:35.911Z,101765.75
2023-05-21T16:19:40.419Z,101767.72
2023-05-21T16:24:42.371Z,101770.91
2023-05-21T16:29:44.728Z,101766.56
2023-05-21T16:34:46.567Z,101770.41
2023-05-21T16:39:48.369Z,101764.34
2023-05-21T16:44:50.453Z,101759.94
2023-05-21T16:49:52.759Z,101761.91
2023-05-21T16:54:54.525Z,101763.28
2023-05-21T16:59:58.924Z,101760.19
2023-05-21T17:05:05.336Z,101760.13
2023-05-21T17:10:12.278Z,101758.00
2023-05-21T17:15:14.065Z,101757.03
2023-05-21T17:20:18.214Z,101751.16
2023-05-21T17:25:22.479Z,101753.59
2023-05-21T17:30:24.474Z,101750.59
2023-05-21T17:35:28.532Z,101756.00
2023-05-21T17:40:32.515Z,101750.16
2023-05-21T17:45:34.383Z,101748.09
2023-05-21T17:50:36.195Z,101750.31
2023-05-21T17:55:38.214Z,101753.94
2023-05-21T18:00:40.448Z,101748.75
2023-05-21T18:05:44.658Z,101752.78
2023-05-21T18:10:48.029Z,101733.63
2023-05-21T18:15:49.915Z,101743.44
2023-05-21T18:20:55.574Z,101743.38
2023-05-21T18:25:57.397Z,101746.50
2023-05-21T18:31:03.835Z,101742.63
2023-05-21T18:36:05.946Z,101739.06
2023-05-21T18:41:10.019Z,101752.78
2023-05-21T18:46:14.395Z,101745.84
2023-05-21T18:51:16.279Z,101746.06
2023-05-21T18:56:18.140Z,101755.31
2023-05-21T19:01:19.946Z,101747.38
2023-05-21T19:06:25.581Z,101750.53
2023-05-21T19:11:31.037Z,101742.16
2023-05-21T19:16:35.328Z,101753.56
2023-05-21T19:21:42.097Z,101755.47
2023-05-21T19:26:43.828Z,101751.44
2023-05-21T19:31:48.768Z,101761.03
2023-05-21T19:36:53.674Z,101766.59
2023-05-21T19:41:57.810Z,101774.06
2023-05-21T19:47:04.929Z,101766.00
2023-05-21T19:52:06.749Z,101781.16
2023-05-21T19:57:13.220Z,101775.19
2023-05-21T20:02:17.090Z,101776.09
2023-05-21T20:07:18.940Z,101779.16
2023-05-21T20:12:23.573Z,101777.63
2023-05-21T20:17:25.572Z,101772.50
2023-05-21T20:22:28.166Z,101769.75
2023-05-21T20:27:34.460Z,101771.34
2023-05-21T20:32:37.490Z,101773.34
2023-05-21T20:37:44.202Z,101771.75
2023-05-21T20:42:50.417Z,101771.00
2023-05-21T20:47:53.628Z,101770.84
2023-05-21T20:52:55.494Z,101769.63
2023-05-21T20:58:00.218Z,101774.09
2023-05-21T21:03:03.857Z,101774.78
2023-05-21T21:08:08.285Z,101763.59
2023-05-21T21:13:10.307Z,101767.47
2023-05-21T21:18:12.592Z,101764.56
2023-05-21T21:23:17.506Z,101769.84
2023-05-21T21:28:22.248Z,101766.38
2023-05-21T21:33:26.556Z,101769.38
2023-05-21T21:38:33.033Z,101773.22
2023-05-21T21:43:34.994Z,101765.38
2023-05-21T21:48:36.720Z,101761.88
2023-05-21T21:53:42.938Z,101756.28
2023-05-21T21:58:45.042Z,101763.41
2023-05-21T22:03:46.932Z,101760.16
2023-05-21T22:08:48.746Z,101742.25
2023-05-21T22:13:50.644Z,101743.34
2023-05-21T22:18:54.154Z,101746.09
2023-05-21T22:23:56.252Z,101740.72
2023-05-21T22:28:59.089Z,101733.50
2023-05-21T22:34:00.814Z,101729.97
2023-05-21T22:39:02.576Z,101734.63
2023-05-21T22:44:06.714Z,101739.03
2023-05-21T22:49:10.723Z,101732.81
2023-05-21T22:54:14.737Z,101736.81
2023-05-21T22:59:18.702Z,101742.06
2023-05-21T23:04:35.786Z,101738.94
2023-05-21T23:09:44.273Z,101748.97
2023-05-21T23:14:49.056Z,101736.22
2023-05-21T23:19:52.436Z,101743.53
2023-05-21T23:24:56.395Z,101739.59
2023-05-21T23:30:00.405Z,101729.38
2023-05-21T23:35:08.175Z,101725.44
2023-05-21T23:40:10.975Z,101730.06
2023-05-21T23:45:12.790Z,101726.94
2023-05-21T23:50:16.859Z,101725.69
2023-05-21T23:55:21.094Z,101722.19
